createdAt,value
2023-04-13T00:00:13.271Z,1.60
2023-04-13T00:02:40.488Z,1.40
2023-04-13T00:05:11.919Z,1.10
2023-04-13T00:07:39.240Z,1.43
2023-04-13T00:10:08.644Z,1.30
2023-04-13T00:12:36.374Z,1.23
2023-04-13T00:15:06.590Z,1.20
2023-04-13T00:17:33.677Z,1.10
2023-04-13T00:20:01.628Z,1.20
2023-04-13T00:22:28.635Z,1.40
2023-04-13T00:24:55.776Z,1.13
2023-04-13T00:27:23.497Z,1.42
2023-04-13T00:29:50.549Z,1.10
2023-04-13T00:32:17.857Z,1.30
2023-04-13T00:34:45.928Z,1.17
2023-04-13T00:37:14.610Z,1.23
2023-04-13T00:39:43.342Z,1.30
2023-04-13T00:42:10.354Z,1.00
2023-04-13T00:44:37.731Z,0.90
2023-04-13T00:47:05.174Z,0.80
2023-04-13T00:49:33.423Z,1.30
2023-04-13T00:52:02.007Z,1.13
2023-04-13T00:54:29.373Z,1.10
2023-04-13T00:56:58.756Z,1.20
2023-04-13T00:59:30.213Z,1.10
2023-04-13T01:01:57.433Z,1.02
2023-04-13T01:04:25.631Z,1.30
2023-04-13T01:06:58.618Z,1.10
2023-04-13T01:09:31.676Z,1.37
2023-04-13T01:12:04.192Z,1.30
2023-04-13T01:14:31.279Z,0.90
2023-04-13T01:17:02.428Z,1.03
2023-04-13T01:19:40.907Z,0.90
2023-04-13T01:22:08.971Z,1.00
2023-04-13T01:24:53.614Z,1.27
2023-04-13T01:27:42.275Z,1.20
2023-04-13T01:30:10.776Z,1.17
2023-04-13T01:32:39.093Z,1.00
2023-04-13T01:35:10.412Z,0.83
2023-04-13T01:37:38.390Z,1.10
2023-04-13T01:40:12.853Z,1.20
2023-04-13T01:42:40.340Z,1.53
2023-04-13T01:45:10.729Z,1.23
2023-04-13T01:47:40.037Z,1.27
2023-04-13T01:50:33.265Z,1.00
2023-04-13T01:53:07.875Z,1.30
2023-04-13T01:55:39.779Z,1.23
2023-04-13T01:58:07.620Z,1.30
2023-04-13T02:00:38.104Z,1.03
2023-04-13T02:03:06.310Z,1.40
2023-04-13T02:05:35.443Z,1.10
2023-04-13T02:08:03.765Z,1.20
2023-04-13T02:10:31.368Z,1.10
2023-04-13T02:12:58.642Z,1.10
2023-04-13T02:15:26.670Z,1.03
2023-04-13T02:17:54.155Z,1.13
2023-04-13T02:20:21.595Z,1.23
2023-04-13T02:22:48.889Z,1.20
2023-04-13T02:25:17.238Z,1.20
2023-04-13T02:27:44.290Z,1.10
2023-04-13T02:30:11.601Z,1.10
2023-04-13T02:32:41.244Z,1.40
2023-04-13T02:35:11.882Z,1.30
2023-04-13T02:37:40.152Z,1.30
2023-04-13T02:40:09.250Z,1.30
2023-04-13T02:42:36.976Z,1.07
2023-04-13T02:45:04.394Z,1.10
2023-04-13T02:47:32.080Z,1.27
2023-04-13T02:49:59.110Z,1.27
2023-04-13T02:52:26.098Z,1.10
2023-04-13T02:54:54.677Z,1.40
2023-04-13T02:57:22.434Z,1.50
2023-04-13T02:59:49.981Z,0.80
2023-04-13T03:02:17.275Z,1.37
2023-04-13T03:04:45.371Z,1.10
2023-04-13T03:07:14.577Z,1.40
2023-04-13T03:09:42.721Z,1.10
2023-04-13T03:12:09.818Z,1.30
2023-04-13T03:14:37.064Z,1.20
2023-04-13T03:17:04.999Z,1.33
2023-04-13T03:19:32.509Z,1.40
2023-04-13T03:21:59.590Z,1.50
2023-04-13T03:24:27.389Z,1.30
2023-04-13T03:26:57.892Z,1.40
2023-04-13T03:29:25.131Z,1.33
2023-04-13T03:31:52.308Z,1.60
2023-04-13T03:34:19.615Z,1.33
2023-04-13T03:36:46.727Z,1.20
2023-04-13T03:39:13.728Z,1.50
2023-04-13T03:41:40.988Z,1.30
2023-04-13T03:44:08.476Z,1.37
2023-04-13T03:46:37.442Z,1.20
2023-04-13T03:49:08.601Z,1.50
2023-04-13T03:51:36.077Z,1.70
2023-04-13T03:54:03.399Z,1.43
2023-04-13T03:56:30.992Z,2.20
2023-04-13T03:58:58.051Z,7.60
2023-04-13T04:01:25.236Z,12.13
2023-04-13T04:03:55.878Z,9.43
2023-04-13T04:06:23.580Z,2.10
2023-04-13T04:08:51.304Z,1.60
2023-04-13T04:11:18.425Z,1.80
2023-04-13T04:13:45.483Z,1.90
2023-04-13T04:16:12.535Z,1.50
2023-04-13T04:18:39.605Z,1.30
2023-04-13T04:21:06.846Z,1.70
2023-04-13T04:23:37.900Z,1.40
2023-04-13T04:26:05.350Z,1.53
2023-04-13T04:28:38.276Z,1.23
2023-04-13T04:31:07.048Z,0.90
2023-04-13T04:33:34.088Z,1.27
2023-04-13T04:36:01.589Z,1.50
2023-04-13T04:38:30.376Z,1.73
2023-04-13T04:40:59.379Z,1.77
2023-04-13T04:43:27.210Z,1.83
2023-04-13T04:45:57.499Z,1.90
2023-04-13T04:48:31.422Z,1.43
2023-04-13T04:50:59.860Z,2.50
2023-04-13T04:53:27.134Z,2.30
2023-04-13T04:55:54.168Z,2.40
2023-04-13T04:58:21.619Z,2.47
2023-04-13T05:00:49.627Z,1.80
2023-04-13T05:03:16.819Z,2.00
2023-04-13T05:05:44.120Z,1.80
2023-04-13T05:08:11.704Z,1.80
2023-04-13T05:10:43.786Z,1.60
2023-04-13T05:13:10.780Z,1.50
2023-04-13T05:15:37.779Z,1.50
2023-04-13T05:18:05.967Z,1.60
2023-04-13T05:20:34.539Z,1.57
2023-04-13T05:23:01.627Z,1.90
2023-04-13T05:25:28.900Z,1.60
2023-04-13T05:27:56.125Z,1.63
2023-04-13T05:30:23.001Z,1.70
2023-04-13T05:32:49.611Z,1.77
2023-04-13T05:35:16.232Z,1.70
2023-04-13T05:37:44.459Z,1.50
2023-04-13T05:40:14.023Z,2.10
2023-04-13T05:42:43.637Z,1.80
2023-04-13T05:45:10.700Z,1.80
2023-04-13T05:47:38.738Z,1.97
2023-04-13T05:50:06.529Z,1.90
2023-04-13T05:52:33.549Z,1.60
2023-04-13T05:55:01.109Z,1.60
2023-04-13T05:57:28.121Z,2.10
2023-04-13T05:59:56.212Z,1.80
2023-04-13T06:02:26.357Z,1.67
2023-04-13T06:04:54.770Z,1.70
2023-04-13T06:07:22.777Z,1.90
2023-04-13T06:09:49.800Z,2.00
2023-04-13T06:12:18.204Z,1.67
2023-04-13T06:14:45.370Z,2.00
2023-04-13T06:17:12.390Z,1.97
2023-04-13T06:19:39.383Z,1.60
2023-04-13T06:22:06.930Z,2.13
2023-04-13T06:24:33.953Z,2.53
2023-04-13T06:27:00.553Z,1.53
2023-04-13T06:29:27.155Z,2.00
2023-04-13T06:31:54.501Z,1.90
2023-04-13T06:34:21.057Z,1.63
2023-04-13T06:36:47.956Z,2.30
2023-04-13T06:39:15.245Z,1.97
2023-04-13T06:41:41.792Z,1.50
2023-04-13T06:44:08.661Z,1.40
2023-04-13T06:46:35.443Z,2.23
2023-04-13T06:49:02.502Z,2.30
2023-04-13T06:51:29.016Z,2.33
2023-04-13T06:53:55.654Z,1.83
2023-04-13T06:56:22.421Z,2.03
2023-04-13T06:58:48.939Z,1.80
2023-04-13T07:01:16.109Z,2.00
2023-04-13T07:03:43.729Z,2.10
2023-04-13T07:06:10.515Z,2.20
2023-04-13T07:08:37.239Z,2.10
2023-04-13T07:11:03.859Z,1.80
2023-04-13T07:13:30.417Z,1.73
2023-04-13T07:15:56.989Z,1.97
2023-04-13T07:18:23.558Z,1.83
2023-04-13T07:20:50.102Z,1.60
2023-04-13T07:23:16.901Z,1.37
2023-04-13T07:25:44.450Z,2.10
2023-04-13T07:28:10.987Z,2.50
2023-04-13T07:30:37.565Z,2.00
2023-04-13T07:33:04.218Z,1.73
2023-04-13T07:35:30.912Z,1.90
2023-04-13T07:37:57.474Z,1.93
2023-04-13T07:40:24.051Z,2.07
2023-04-13T07:42:50.718Z,2.20
2023-04-13T07:45:17.949Z,1.83
2023-04-13T07:47:44.543Z,1.80
2023-04-13T07:50:11.761Z,1.80
2023-04-13T07:52:38.279Z,1.80
2023-04-13T07:55:05.842Z,3.10
2023-04-13T07:57:35.155Z,2.87
2023-04-13T08:00:02.270Z,1.80
2023-04-13T08:02:29.190Z,1.90
2023-04-13T08:04:55.947Z,1.90
2023-04-13T08:07:23.095Z,1.70
2023-04-13T08:09:52.326Z,1.60
2023-04-13T08:12:19.191Z,1.70
2023-04-13T08:14:46.169Z,1.67
2023-04-13T08:17:12.739Z,1.80
2023-04-13T08:19:39.484Z,2.20
2023-04-13T08:22:06.110Z,1.77
2023-04-13T08:24:32.740Z,2.33
2023-04-13T08:26:59.292Z,1.90
2023-04-13T08:29:26.358Z,1.93
2023-04-13T08:31:53.271Z,1.80
2023-04-13T08:34:20.331Z,2.53
2023-04-13T08:36:47.580Z,2.17
2023-04-13T08:39:14.796Z,1.90
2023-04-13T08:41:46.130Z,1.70
2023-04-13T08:44:14.443Z,2.07
2023-04-13T08:46:44.400Z,1.90
2023-04-13T08:49:11.739Z,2.13
2023-04-13T08:51:39.023Z,1.73
2023-04-13T08:54:06.980Z,1.90
2023-04-13T08:56:45.286Z,1.67
2023-04-13T08:59:15.422Z,1.83
2023-04-13T09:01:46.536Z,2.17
2023-04-13T09:04:17.847Z,2.38
2023-04-13T09:06:47.802Z,2.03
2023-04-13T09:09:14.960Z,2.30
2023-04-13T09:11:43.369Z,1.87
2023-04-13T09:14:10.414Z,1.80
2023-04-13T09:16:41.910Z,2.43
2023-04-13T09:19:09.457Z,2.43
2023-04-13T09:21:40.674Z,2.00
2023-04-13T09:24:08.335Z,1.70
2023-04-13T09:26:45.668Z,2.33
2023-04-13T09:29:17.576Z,1.70
2023-04-13T09:31:45.954Z,1.53
2023-04-13T09:34:13.638Z,2.10
2023-04-13T09:36:53.331Z,2.23
2023-04-13T09:39:27.898Z,2.17
2023-04-13T09:41:55.270Z,1.73
2023-04-13T09:44:28.329Z,2.47
2023-04-13T09:47:03.402Z,1.93
2023-04-13T09:49:43.322Z,2.03
2023-04-13T09:52:23.465Z,1.93
2023-04-13T09:54:58.791Z,1.80
2023-04-13T09:57:30.171Z,2.23
2023-04-13T10:00:00.421Z,2.57
2023-04-13T10:02:28.011Z,2.20
2023-04-13T10:04:55.770Z,2.00
2023-04-13T10:07:26.735Z,3.20
2023-04-13T10:09:54.027Z,2.50
2023-04-13T10:12:20.675Z,3.20
2023-04-13T10:14:49.357Z,2.83
2023-04-13T10:17:43.567Z,2.30
2023-04-13T10:20:13.530Z,2.03
2023-04-13T10:22:43.670Z,2.43
2023-04-13T10:25:29.021Z,2.33
2023-04-13T10:27:59.780Z,2.10
2023-04-13T10:30:26.978Z,1.87
2023-04-13T10:33:09.631Z,2.23
2023-04-13T10:35:37.633Z,2.40
2023-04-13T10:38:05.179Z,2.53
2023-04-13T10:40:52.119Z,2.17
2023-04-13T10:43:32.156Z,2.30
2023-04-13T10:46:05.756Z,2.37
2023-04-13T10:48:32.891Z,2.40
2023-04-13T10:51:00.335Z,2.20
2023-04-13T10:53:30.259Z,2.75
2023-04-13T10:55:57.801Z,3.10
2023-04-13T10:58:25.246Z,4.60
2023-04-13T11:00:52.141Z,3.40
2023-04-13T11:03:19.208Z,2.30
2023-04-13T11:05:47.455Z,2.50
2023-04-13T11:08:20.739Z,2.17
2023-04-13T11:10:52.414Z,2.23
2023-04-13T11:13:19.202Z,2.07
2023-04-13T11:15:46.592Z,2.57
2023-04-13T11:18:13.276Z,2.17
2023-04-13T11:20:41.716Z,2.50
2023-04-13T11:23:18.558Z,3.03
2023-04-13T11:25:59.789Z,2.30
2023-04-13T11:28:40.685Z,2.33
2023-04-13T11:31:08.066Z,2.60
2023-04-13T11:33:37.215Z,2.47
2023-04-13T11:36:06.730Z,2.00
2023-04-13T11:38:33.351Z,2.60
2023-04-13T11:41:15.751Z,2.03
2023-04-13T11:43:46.396Z,2.27
2023-04-13T11:46:15.947Z,2.17
2023-04-13T11:48:43.371Z,2.10
2023-04-13T11:51:11.245Z,2.77
2023-04-13T11:53:39.328Z,2.30
2023-04-13T11:56:06.816Z,1.90
2023-04-13T11:58:33.403Z,1.90
2023-04-13T12:03:47.659Z,2.27
2023-04-13T12:06:23.192Z,1.90
2023-04-13T12:08:56.219Z,2.60
2023-04-13T12:11:41.127Z,2.13
2023-04-13T12:14:47.020Z,2.43
2023-04-13T12:17:34.682Z,1.80
2023-04-13T12:20:00.626Z,2.10
2023-04-13T12:22:52.465Z,2.40
2023-04-13T12:25:24.207Z,1.60
2023-04-13T12:27:53.269Z,1.27
2023-04-13T12:30:21.656Z,1.37
2023-04-13T12:32:51.489Z,1.70
2023-04-13T12:35:21.496Z,1.67
2023-04-13T12:37:50.039Z,1.57
2023-04-13T12:40:18.387Z,1.70
2023-04-13T12:42:46.534Z,1.43
2023-04-13T12:45:14.040Z,2.00
2023-04-13T12:47:41.560Z,1.60
2023-04-13T12:50:09.906Z,1.70
2023-04-13T12:52:40.699Z,1.80
2023-04-13T12:55:07.903Z,1.60
2023-04-13T12:57:34.767Z,1.47
2023-04-13T13:00:01.349Z,2.00
2023-04-13T13:02:30.919Z,1.33
2023-04-13T13:04:58.989Z,1.60
2023-04-13T13:07:25.663Z,1.40
2023-04-13T13:09:52.267Z,1.40
2023-04-13T13:12:18.898Z,1.60
2023-04-13T13:14:45.450Z,1.40
2023-04-13T13:17:12.027Z,1.70
2023-04-13T13:19:38.665Z,1.33
2023-04-13T13:22:05.216Z,1.73
2023-04-13T13:24:31.808Z,1.57
2023-04-13T13:29:33.010Z,1.67
2023-04-13T13:32:00.358Z,1.70
2023-04-13T13:34:27.122Z,1.70
2023-04-13T13:36:54.007Z,1.90
2023-04-13T13:39:22.288Z,1.60
2023-04-13T13:41:49.447Z,1.50
2023-04-13T13:44:16.632Z,1.83
2023-04-13T13:46:43.632Z,1.77
2023-04-13T13:49:11.721Z,1.43
2023-04-13T13:51:38.278Z,1.70
2023-04-13T13:54:04.976Z,1.50
2023-04-13T13:56:31.531Z,1.97
2023-04-13T13:58:58.905Z,1.50
2023-04-13T14:01:25.804Z,1.38
2023-04-13T14:03:53.329Z,1.47
2023-04-13T14:06:20.326Z,1.33
2023-04-13T14:08:46.949Z,1.60
2023-04-13T14:11:13.516Z,1.53
2023-04-13T14:13:40.149Z,1.67
2023-04-13T14:16:07.265Z,1.90
2023-04-13T14:18:33.854Z,1.50
2023-04-13T14:21:00.482Z,2.00
2023-04-13T14:23:27.144Z,1.70
2023-04-13T14:25:53.731Z,1.67
2023-04-13T14:28:20.244Z,2.40
2023-04-13T14:30:46.858Z,1.73
2023-04-13T14:33:14.608Z,2.13
2023-04-13T14:35:41.213Z,1.83
2023-04-13T14:38:11.400Z,1.47
2023-04-13T14:40:38.134Z,1.50
2023-04-13T14:43:04.721Z,1.43
2023-04-13T14:45:31.979Z,1.40
2023-04-13T14:47:58.624Z,1.40
2023-04-13T14:50:25.421Z,1.40
2023-04-13T14:52:52.322Z,1.07
2023-04-13T14:55:19.225Z,1.30
2023-04-13T14:57:45.919Z,1.63
2023-04-13T15:00:25.887Z,1.60
2023-04-13T15:02:53.428Z,1.40
2023-04-13T15:05:20.599Z,1.37
2023-04-13T15:07:48.343Z,2.70
2023-04-13T15:10:14.940Z,2.60
2023-04-13T15:12:41.884Z,2.80
2023-04-13T15:15:09.188Z,1.70
2023-04-13T15:17:35.832Z,2.20
2023-04-13T15:20:02.654Z,2.23
2023-04-13T15:22:30.879Z,2.50
2023-04-13T15:24:57.450Z,2.80
2023-04-13T15:27:26.599Z,3.57
2023-04-13T15:29:58.752Z,2.57
2023-04-13T15:32:25.705Z,2.77
2023-04-13T15:34:53.659Z,3.23
2023-04-13T15:37:20.478Z,2.67
2023-04-13T15:39:47.039Z,2.90
2023-04-13T15:42:14.404Z,2.07
2023-04-13T15:44:40.919Z,3.20
2023-04-13T15:47:07.533Z,2.63
2023-04-13T15:49:34.085Z,2.27
2023-04-13T15:52:00.643Z,2.87
2023-04-13T15:54:27.165Z,2.33
2023-04-13T15:56:53.683Z,2.50
2023-04-13T15:59:20.384Z,2.20
2023-04-13T16:01:48.899Z,2.43
2023-04-13T16:04:16.200Z,2.03
2023-04-13T16:06:42.922Z,2.40
2023-04-13T16:09:09.889Z,2.13
2023-04-13T16:11:40.448Z,2.03
2023-04-13T16:14:07.751Z,1.83
2023-04-13T16:16:46.977Z,1.77
2023-04-13T16:19:17.922Z,1.93
2023-04-13T16:21:45.859Z,2.20
2023-04-13T16:24:12.653Z,2.00
2023-04-13T16:26:39.640Z,2.20
2023-04-13T16:29:07.920Z,2.30
2023-04-13T16:31:34.539Z,2.10
2023-04-13T16:34:04.875Z,3.17
2023-04-13T16:36:35.709Z,3.50
2023-04-13T16:39:11.978Z,5.57
2023-04-13T16:41:39.691Z,3.50
2023-04-13T16:44:06.274Z,3.47
2023-04-13T16:46:32.929Z,2.97
2023-04-13T16:48:59.837Z,3.87
2023-04-13T16:51:27.137Z,2.73
2023-04-13T16:53:54.308Z,3.33
2023-04-13T16:56:22.221Z,2.30
2023-04-13T16:58:49.914Z,2.93
2023-04-13T17:01:16.521Z,2.40
2023-04-13T17:03:43.218Z,2.53
2023-04-13T17:06:09.831Z,2.73
2023-04-13T17:08:36.373Z,2.50
2023-04-13T17:11:04.607Z,2.50
2023-04-13T17:13:31.453Z,2.60
2023-04-13T17:15:58.031Z,2.90
2023-04-13T17:18:24.688Z,2.67
2023-04-13T17:20:55.655Z,2.50
2023-04-13T17:23:23.361Z,2.37
2023-04-13T17:25:52.655Z,3.10
2023-04-13T17:28:21.815Z,3.10
2023-04-13T17:30:48.810Z,3.40
2023-04-13T17:33:16.691Z,3.83
2023-04-13T17:35:43.263Z,3.30
2023-04-13T17:38:09.846Z,3.30
2023-04-13T17:40:36.457Z,2.93
2023-04-13T17:43:03.056Z,3.03
2023-04-13T17:45:29.608Z,2.40
2023-04-13T17:47:56.401Z,3.10
2023-04-13T17:50:22.986Z,3.07
2023-04-13T17:52:49.508Z,3.23
2023-04-13T17:55:16.188Z,2.50
2023-04-13T17:57:42.739Z,2.40
2023-04-13T18:00:10.526Z,3.07
2023-04-13T18:02:39.300Z,2.97
2023-04-13T18:05:07.166Z,3.03
2023-04-13T18:07:33.776Z,3.20
2023-04-13T18:10:00.457Z,3.23
2023-04-13T18:12:27.097Z,3.70
2023-04-13T18:14:53.844Z,3.70
2023-04-13T18:17:21.500Z,3.23
2023-04-13T18:19:54.310Z,3.90
2023-04-13T18:22:21.525Z,3.57
2023-04-13T18:24:48.146Z,4.17
2023-04-13T18:27:17.334Z,4.00
2023-04-13T18:29:44.407Z,4.23
2023-04-13T18:32:11.492Z,3.60
2023-04-13T18:34:39.976Z,3.90
2023-04-13T18:37:06.998Z,3.80
2023-04-13T18:39:33.949Z,3.70
2023-04-13T18:42:00.926Z,3.50
2023-04-13T18:44:30.188Z,4.00
2023-04-13T18:46:57.177Z,3.50
2023-04-13T18:49:24.229Z,3.13
2023-04-13T18:51:51.176Z,3.60
2023-04-13T18:54:18.148Z,3.37
2023-04-13T18:56:45.646Z,3.00
2023-04-13T18:59:12.648Z,3.20
2023-04-13T19:01:39.686Z,3.07
2023-04-13T19:04:06.965Z,2.90
2023-04-13T19:06:36.139Z,2.77
2023-04-13T19:09:04.510Z,3.23
2023-04-13T19:11:44.768Z,3.53
2023-04-13T19:14:11.734Z,3.47
2023-04-13T19:16:38.767Z,3.93
2023-04-13T19:19:05.953Z,4.77
2023-04-13T19:21:33.010Z,7.37
2023-04-13T19:24:00.164Z,8.57
2023-04-13T19:26:27.487Z,5.07
2023-04-13T19:28:57.312Z,3.20
2023-04-13T19:31:24.392Z,2.90
2023-04-13T19:33:52.585Z,2.70
2023-04-13T19:36:19.822Z,3.00
2023-04-13T19:38:47.045Z,2.40
2023-04-13T19:41:14.146Z,2.93
2023-04-13T19:43:41.221Z,2.53
2023-04-13T19:46:08.293Z,2.40
2023-04-13T19:48:35.299Z,2.27
2023-04-13T19:51:02.285Z,2.60
2023-04-13T19:53:29.267Z,2.80
2023-04-13T19:55:57.202Z,2.80
2023-04-13T19:58:24.269Z,2.90
2023-04-13T20:00:51.341Z,2.67
2023-04-13T20:03:20.314Z,2.20
2023-04-13T20:05:48.118Z,2.47
2023-04-13T20:08:16.306Z,2.23
2023-04-13T20:10:43.561Z,2.50
2023-04-13T20:13:10.837Z,2.03
2023-04-13T20:15:38.303Z,2.40
2023-04-13T20:18:06.445Z,2.57
2023-04-13T20:20:35.164Z,2.30
2023-04-13T20:23:02.159Z,2.50
2023-04-13T20:25:30.511Z,2.60
2023-04-13T20:27:57.500Z,2.57
2023-04-13T20:30:24.728Z,2.70
2023-04-13T20:32:51.786Z,2.90
2023-04-13T20:35:19.791Z,2.67
2023-04-13T20:37:46.834Z,3.50
2023-04-13T20:40:13.860Z,3.40
2023-04-13T20:42:41.953Z,3.40
2023-04-13T20:45:10.355Z,3.63
2023-04-13T20:47:37.368Z,3.50
2023-04-13T20:50:04.774Z,4.70
2023-04-13T20:52:31.831Z,4.40
2023-04-13T20:54:59.020Z,3.77
2023-04-13T20:57:26.283Z,3.97
2023-04-13T20:59:54.145Z,3.50
2023-04-13T21:02:21.647Z,3.70
2023-04-13T21:04:48.839Z,3.30
2023-04-13T21:07:16.235Z,3.50
2023-04-13T21:09:43.242Z,4.27
2023-04-13T21:12:10.245Z,3.80
2023-04-13T21:14:37.207Z,3.40
2023-04-13T21:17:04.192Z,3.67
2023-04-13T21:19:32.459Z,3.17
2023-04-13T21:21:59.628Z,3.03
2023-04-13T21:24:26.625Z,3.37
2023-04-13T21:26:53.584Z,2.93
2023-04-13T21:29:20.709Z,3.07
2023-04-13T21:31:48.226Z,3.10
2023-04-13T21:34:16.640Z,4.10
2023-04-13T21:39:14.297Z,4.07
2023-04-13T21:41:41.611Z,3.80
2023-04-13T21:44:22.217Z,4.07
2023-04-13T21:46:53.425Z,4.17
2023-04-13T21:49:20.553Z,4.07
2023-04-13T21:51:47.534Z,4.40
2023-04-13T21:54:14.607Z,4.57
2023-04-13T21:56:41.597Z,4.03
2023-04-13T21:59:08.693Z,4.47
2023-04-13T22:01:35.694Z,3.90
2023-04-13T22:04:02.783Z,4.10
2023-04-13T22:06:29.836Z,4.23
2023-04-13T22:08:56.777Z,3.53
2023-04-13T22:11:23.780Z,3.97
2023-04-13T22:13:50.772Z,3.88
2023-04-13T22:16:17.925Z,3.67
2023-04-13T22:18:45.042Z,3.53
2023-04-13T22:21:12.237Z,3.43
2023-04-13T22:23:39.228Z,3.87
2023-04-13T22:26:06.230Z,3.40
2023-04-13T22:28:33.325Z,3.30
2023-04-13T22:31:06.829Z,3.60
2023-04-13T22:33:36.075Z,3.27
2023-04-13T22:36:03.734Z,2.90
2023-04-13T22:38:30.900Z,2.90
2023-04-13T22:40:58.076Z,2.93
2023-04-13T22:43:25.758Z,2.83
2023-04-13T22:45:59.244Z,3.27
2023-04-13T22:48:26.243Z,2.87
2023-04-13T22:50:53.291Z,3.10
2023-04-13T22:53:20.918Z,2.73
2023-04-13T22:55:48.060Z,3.35
2023-04-13T22:58:15.082Z,2.60
2023-04-13T23:00:42.438Z,3.13
2023-04-13T23:03:09.521Z,3.00
2023-04-13T23:05:36.558Z,2.90
2023-04-13T23:08:03.708Z,3.00
2023-04-13T23:10:31.736Z,3.10
2023-04-13T23:12:59.152Z,3.30
2023-04-13T23:15:26.156Z,3.30
2023-04-13T23:17:54.563Z,3.97
2023-04-13T23:20:21.863Z,3.50
2023-04-13T23:22:49.085Z,3.20
2023-04-13T23:25:16.217Z,3.67
2023-04-13T23:27:43.232Z,3.30
2023-04-13T23:30:10.608Z,2.93
2023-04-13T23:32:37.612Z,3.30
2023-04-13T23:35:04.759Z,3.23
2023-04-13T23:37:31.753Z,3.40
2023-04-13T23:39:58.832Z,3.20
2023-04-13T23:42:25.834Z,3.27
2023-04-13T23:44:52.833Z,3.50
2023-04-13T23:47:19.883Z,3.10
2023-04-13T23:49:46.867Z,2.93
2023-04-13T23:52:13.873Z,3.07
2023-04-13T23:54:40.948Z,3.20
2023-04-13T23:57:09.648Z,3.00
2023-04-13T23:59:36.664Z,3.37
